sensor_id;sensor_type;location;lat;lon;timestamp;temperature;humidity
20233;DHT22;37438;55.674;13.074;2023-06-26T00:02:27;17.70;99.90
20233;DHT22;37438;55.674;13.074;2023-06-26T00:05:31;17.70;99.90
20233;DHT22;37438;55.674;13.074;2023-06-26T00:08:37;17.50;99.90
20233;DHT22;37438;55.674;13.074;2023-06-26T00:11:41;17.40;99.90
20233;DHT22;37438;55.674;13.074;2023-06-26T00:14:46;17.40;99.90
20233;DHT22;37438;55.674;13.074;2023-06-26T00:17:50;17.30;99.90
20233;DHT22;37438;55.674;13.074;2023-06-26T00:20:55;17.30;99.90
20233;DHT22;37438;55.674;13.074;2023-06-26T00:23:59;17.40;99.90
20233;DHT22;37438;55.674;13.074;2023-06-26T00:27:04;17.30;99.90
20233;DHT22;37438;55.674;13.074;2023-06-26T00:30:09;17.30;99.90
20233;DHT22;37438;55.674;13.074;2023-06-26T00:33:13;17.30;99.90
20233;DHT22;37438;55.674;13.074;2023-06-26T00:36:18;17.30;99.90
20233;DHT22;37438;55.674;13.074;2023-06-26T00:39:22;17.30;99.90
20233;DHT22;37438;55.674;13.074;2023-06-26T00:42:29;17.30;99.90
20233;DHT22;37438;55.674;13.074;2023-06-26T00:45:34;17.40;99.90
20233;DHT22;37438;55.674;13.074;2023-06-26T00:48:47;17.30;99.90
20233;DHT22;37438;55.674;13.074;2023-06-26T00:51:52;17.40;99.90
20233;DHT22;37438;55.674;13.074;2023-06-26T00:54:57;17.20;99.90
20233;DHT22;37438;55.674;13.074;2023-06-26T00:58:02;17.20;99.90
20233;DHT22;37438;55.674;13.074;2023-06-26T01:01:06;17.20;99.90
20233;DHT22;37438;55.674;13.074;2023-06-26T01:04:13;17.00;99.90
20233;DHT22;37438;55.674;13.074;2023-06-26T01:07:22;17.00;99.90
20233;DHT22;37438;55.674;13.074;2023-06-26T01:10:27;16.90;99.90
20233;DHT22;37438;55.674;13.074;2023-06-26T01:13:34;16.90;99.90
20233;DHT22;37438;55.674;13.074;2023-06-26T01:16:40;16.80;99.90
20233;DHT22;37438;55.674;13.074;2023-06-26T01:19:44;16.80;99.90
20233;DHT22;37438;55.674;13.074;2023-06-26T01:29:13;16.60;99.90
20233;DHT22;37438;55.674;13.074;2023-06-26T01:32:19;16.60;99.90
20233;DHT22;37438;55.674;13.074;2023-06-26T01:35:23;16.50;99.90
20233;DHT22;37438;55.674;13.074;2023-06-26T01:38:28;16.50;99.90
20233;DHT22;37438;55.674;13.074;2023-06-26T01:41:34;16.50;99.90
20233;DHT22;37438;55.674;13.074;2023-06-26T01:44:41;16.40;99.90
20233;DHT22;37438;55.674;13.074;2023-06-26T01:47:48;16.40;99.90
20233;DHT22;37438;55.674;13.074;2023-06-26T01:50:53;16.30;99.90
20233;DHT22;37438;55.674;13.074;2023-06-26T01:53:58;16.30;99.90
20233;DHT22;37438;55.674;13.074;2023-06-26T01:57:02;16.30;99.90
20233;DHT22;37438;55.674;13.074;2023-06-26T02:00:08;16.40;99.90
20233;DHT22;37438;55.674;13.074;2023-06-26T02:03:18;16.40;99.90
20233;DHT22;37438;55.674;13.074;2023-06-26T02:06:23;16.30;99.90
20233;DHT22;37438;55.674;13.074;2023-06-26T02:09:28;16.30;99.90
20233;DHT22;37438;55.674;13.074;2023-06-26T02:12:33;16.30;99.90
20233;DHT22;37438;55.674;13.074;2023-06-26T02:15:39;16.30;99.90
20233;DHT22;37438;55.674;13.074;2023-06-26T02:18:45;16.40;99.90
20233;DHT22;37438;55.674;13.074;2023-06-26T02:21:49;16.50;99.90
20233;DHT22;37438;55.674;13.074;2023-06-26T02:24:53;16.50;99.90
20233;DHT22;37438;55.674;13.074;2023-06-26T02:27:58;16.60;99.90
20233;DHT22;37438;55.674;13.074;2023-06-26T02:31:02;16.50;99.90
20233;DHT22;37438;55.674;13.074;2023-06-26T02:34:09;16.40;99.90
20233;DHT22;37438;55.674;13.074;2023-06-26T02:37:14;16.30;99.90
20233;DHT22;37438;55.674;13.074;2023-06-26T02:40:20;16.30;99.90
20233;DHT22;37438;55.674;13.074;2023-06-26T02:43:25;16.30;99.90
20233;DHT22;37438;55.674;13.074;2023-06-26T02:46:29;16.30;99.90
20233;DHT22;37438;55.674;13.074;2023-06-26T02:49:34;16.40;99.90
20233;DHT22;37438;55.674;13.074;2023-06-26T02:52:39;16.40;99.90
20233;DHT22;37438;55.674;13.074;2023-06-26T02:55:43;16.40;99.90
20233;DHT22;37438;55.674;13.074;2023-06-26T02:58:48;16.50;99.90
20233;DHT22;37438;55.674;13.074;2023-06-26T03:01:53;16.60;99.90
20233;DHT22;37438;55.674;13.074;2023-06-26T03:05:02;16.70;99.90
20233;DHT22;37438;55.674;13.074;2023-06-26T03:08:07;16.80;99.90
20233;DHT22;37438;55.674;13.074;2023-06-26T03:11:12;16.90;99.90
20233;DHT22;37438;55.674;13.074;2023-06-26T03:14:17;16.90;99.90
20233;DHT22;37438;55.674;13.074;2023-06-26T03:17:21;17.00;99.90
20233;DHT22;37438;55.674;13.074;2023-06-26T03:20:29;17.10;99.90
20233;DHT22;37438;55.674;13.074;2023-06-26T03:23:34;17.20;99.90
20233;DHT22;37438;55.674;13.074;2023-06-26T03:26:39;17.30;99.90
20233;DHT22;37438;55.674;13.074;2023-06-26T03:29:43;17.30;99.90
20233;DHT22;37438;55.674;13.074;2023-06-26T03:32:48;17.50;99.90
20233;DHT22;37438;55.674;13.074;2023-06-26T03:35:54;17.60;99.90
20233;DHT22;37438;55.674;13.074;2023-06-26T03:38:58;17.70;99.90
20233;DHT22;37438;55.674;13.074;2023-06-26T03:42:03;17.70;99.90
20233;DHT22;37438;55.674;13.074;2023-06-26T03:45:08;17.70;99.90
20233;DHT22;37438;55.674;13.074;2023-06-26T03:48:12;17.70;99.90
20233;DHT22;37438;55.674;13.074;2023-06-26T03:51:17;17.80;99.90
20233;DHT22;37438;55.674;13.074;2023-06-26T03:54:21;17.90;99.90
20233;DHT22;37438;55.674;13.074;2023-06-26T03:57:26;17.90;99.90
20233;DHT22;37438;55.674;13.074;2023-06-26T04:00:31;18.10;99.90
20233;DHT22;37438;55.674;13.074;2023-06-26T04:03:35;18.30;99.90
20233;DHT22;37438;55.674;13.074;2023-06-26T04:06:40;18.40;99.90
20233;DHT22;37438;55.674;13.074;2023-06-26T04:09:44;18.50;99.90
20233;DHT22;37438;55.674;13.074;2023-06-26T04:12:49;18.50;99.90
20233;DHT22;37438;55.674;13.074;2023-06-26T04:15:54;18.70;99.90
20233;DHT22;37438;55.674;13.074;2023-06-26T04:18:58;18.90;99.90
20233;DHT22;37438;55.674;13.074;2023-06-26T04:22:03;19.10;99.90
20233;DHT22;37438;55.674;13.074;2023-06-26T04:25:08;19.30;99.90
20233;DHT22;37438;55.674;13.074;2023-06-26T04:28:12;19.40;99.90
20233;DHT22;37438;55.674;13.074;2023-06-26T04:31:17;19.60;99.90
20233;DHT22;37438;55.674;13.074;2023-06-26T04:34:21;19.70;99.90
20233;DHT22;37438;55.674;13.074;2023-06-26T04:37:27;19.90;99.90
20233;DHT22;37438;55.674;13.074;2023-06-26T04:40:31;20.30;99.90
20233;DHT22;37438;55.674;13.074;2023-06-26T04:43:36;20.60;99.90
20233;DHT22;37438;55.674;13.074;2023-06-26T04:46:41;20.60;99.90
20233;DHT22;37438;55.674;13.074;2023-06-26T04:49:45;20.60;99.90
20233;DHT22;37438;55.674;13.074;2023-06-26T04:52:50;20.40;99.90
20233;DHT22;37438;55.674;13.074;2023-06-26T04:55:55;20.30;99.90
20233;DHT22;37438;55.674;13.074;2023-06-26T04:59:00;20.50;99.90
20233;DHT22;37438;55.674;13.074;2023-06-26T05:02:05;20.80;99.90
20233;DHT22;37438;55.674;13.074;2023-06-26T05:05:10;20.80;99.90
20233;DHT22;37438;55.674;13.074;2023-06-26T05:11:19;21.10;99.90
20233;DHT22;37438;55.674;13.074;2023-06-26T05:14:24;21.50;99.90
20233;DHT22;37438;55.674;13.074;2023-06-26T05:17:28;21.40;99.90
20233;DHT22;37438;55.674;13.074;2023-06-26T05:20:34;22.10;99.90
20233;DHT22;37438;55.674;13.074;2023-06-26T05:23:38;21.90;99.90
20233;DHT22;37438;55.674;13.074;2023-06-26T05:26:42;21.90;99.90
20233;DHT22;37438;55.674;13.074;2023-06-26T05:29:48;22.30;99.90
20233;DHT22;37438;55.674;13.074;2023-06-26T05:32:52;21.70;99.90
20233;DHT22;37438;55.674;13.074;2023-06-26T05:35:57;22.00;99.90
20233;DHT22;37438;55.674;13.074;2023-06-26T05:39:03;22.30;99.90
20233;DHT22;37438;55.674;13.074;2023-06-26T05:42:07;22.50;99.90
20233;DHT22;37438;55.674;13.074;2023-06-26T05:45:12;22.60;99.90
20233;DHT22;37438;55.674;13.074;2023-06-26T05:48:16;22.60;99.90
20233;DHT22;37438;55.674;13.074;2023-06-26T05:51:21;22.30;99.90
20233;DHT22;37438;55.674;13.074;2023-06-26T05:54:25;23.20;99.90
20233;DHT22;37438;55.674;13.074;2023-06-26T05:57:30;23.40;99.90
20233;DHT22;37438;55.674;13.074;2023-06-26T06:00:35;23.70;99.90
20233;DHT22;37438;55.674;13.074;2023-06-26T06:03:40;23.50;99.90
20233;DHT22;37438;55.674;13.074;2023-06-26T06:06:45;23.60;99.90
20233;DHT22;37438;55.674;13.074;2023-06-26T06:09:49;23.70;99.90
20233;DHT22;37438;55.674;13.074;2023-06-26T06:12:54;24.20;89.60
20233;DHT22;37438;55.674;13.074;2023-06-26T06:15:58;24.60;99.90
20233;DHT22;37438;55.674;13.074;2023-06-26T06:19:03;24.40;99.90
20233;DHT22;37438;55.674;13.074;2023-06-26T06:22:08;23.70;99.90
20233;DHT22;37438;55.674;13.074;2023-06-26T06:25:13;23.90;1.00
20233;DHT22;37438;55.674;13.074;2023-06-26T06:28:17;24.10;99.90
20233;DHT22;37438;55.674;13.074;2023-06-26T06:31:22;25.00;99.90
20233;DHT22;37438;55.674;13.074;2023-06-26T06:34:27;24.70;99.90
20233;DHT22;37438;55.674;13.074;2023-06-26T06:37:31;24.80;21.40
20233;DHT22;37438;55.674;13.074;2023-06-26T06:40:36;25.00;11.70
20233;DHT22;37438;55.674;13.074;2023-06-26T06:43:41;24.90;99.90
20233;DHT22;37438;55.674;13.074;2023-06-26T06:46:46;24.40;99.90
20233;DHT22;37438;55.674;13.074;2023-06-26T06:49:51;24.70;99.90
20233;DHT22;37438;55.674;13.074;2023-06-26T06:52:55;25.00;99.90
20233;DHT22;37438;55.674;13.074;2023-06-26T06:56:00;25.40;1.00
20233;DHT22;37438;55.674;13.074;2023-06-26T06:59:04;25.20;29.20
20233;DHT22;37438;55.674;13.074;2023-06-26T07:02:09;25.70;1.00
20233;DHT22;37438;55.674;13.074;2023-06-26T07:05:13;26.10;1.00
20233;DHT22;37438;55.674;13.074;2023-06-26T07:08:18;26.10;99.90
20233;DHT22;37438;55.674;13.074;2023-06-26T07:11:22;26.30;99.90
20233;DHT22;37438;55.674;13.074;2023-06-26T07:14:27;25.80;58.70
20233;DHT22;37438;55.674;13.074;2023-06-26T07:17:32;25.80;99.90
20233;DHT22;37438;55.674;13.074;2023-06-26T07:20:37;25.10;22.40
20233;DHT22;37438;55.674;13.074;2023-06-26T07:23:41;24.80;28.90
20233;DHT22;37438;55.674;13.074;2023-06-26T07:26:46;24.80;10.00
20233;DHT22;37438;55.674;13.074;2023-06-26T07:29:53;25.60;99.90
20233;DHT22;37438;55.674;13.074;2023-06-26T07:32:58;25.40;99.90
20233;DHT22;37438;55.674;13.074;2023-06-26T07:36:02;25.20;99.90
20233;DHT22;37438;55.674;13.074;2023-06-26T07:39:07;26.00;1.00
20233;DHT22;37438;55.674;13.074;2023-06-26T07:42:16;25.30;89.70
20233;DHT22;37438;55.674;13.074;2023-06-26T07:45:21;26.00;1.00
20233;DHT22;37438;55.674;13.074;2023-06-26T07:48:28;26.00;1.00
20233;DHT22;37438;55.674;13.074;2023-06-26T07:51:33;26.40;99.90
20233;DHT22;37438;55.674;13.074;2023-06-26T07:54:37;26.40;99.90
20233;DHT22;37438;55.674;13.074;2023-06-26T07:57:42;26.40;99.90
20233;DHT22;37438;55.674;13.074;2023-06-26T08:00:46;26.60;99.90
20233;DHT22;37438;55.674;13.074;2023-06-26T08:03:51;26.90;99.90
20233;DHT22;37438;55.674;13.074;2023-06-26T08:06:56;27.60;99.90
20233;DHT22;37438;55.674;13.074;2023-06-26T08:10:01;27.70;99.90
20233;DHT22;37438;55.674;13.074;2023-06-26T08:13:05;27.70;99.90
20233;DHT22;37438;55.674;13.074;2023-06-26T08:16:10;27.10;99.90
20233;DHT22;37438;55.674;13.074;2023-06-26T08:19:14;27.60;99.90
20233;DHT22;37438;55.674;13.074;2023-06-26T08:22:19;27.20;99.90
20233;DHT22;37438;55.674;13.074;2023-06-26T08:25:23;27.20;99.90
20233;DHT22;37438;55.674;13.074;2023-06-26T08:28:28;27.90;99.90
20233;DHT22;37438;55.674;13.074;2023-06-26T08:31:33;26.90;99.90
20233;DHT22;37438;55.674;13.074;2023-06-26T08:34:38;27.30;99.90
20233;DHT22;37438;55.674;13.074;2023-06-26T08:37:43;27.90;99.90
20233;DHT22;37438;55.674;13.074;2023-06-26T08:40:47;28.10;99.90
20233;DHT22;37438;55.674;13.074;2023-06-26T08:43:52;28.40;99.90
20233;DHT22;37438;55.674;13.074;2023-06-26T08:46:58;29.10;99.90
20233;DHT22;37438;55.674;13.074;2023-06-26T08:56:32;27.90;99.90
20233;DHT22;37438;55.674;13.074;2023-06-26T08:59:37;28.10;99.90
20233;DHT22;37438;55.674;13.074;2023-06-26T09:02:42;29.00;99.90
20233;DHT22;37438;55.674;13.074;2023-06-26T09:05:50;28.50;99.90
20233;DHT22;37438;55.674;13.074;2023-06-26T09:08:54;28.50;99.90
20233;DHT22;37438;55.674;13.074;2023-06-26T09:11:59;28.60;99.90
20233;DHT22;37438;55.674;13.074;2023-06-26T09:15:05;29.20;99.90
20233;DHT22;37438;55.674;13.074;2023-06-26T09:18:10;29.20;99.90
20233;DHT22;37438;55.674;13.074;2023-06-26T09:21:15;28.20;99.90
20233;DHT22;37438;55.674;13.074;2023-06-26T09:24:19;29.10;99.90
20233;DHT22;37438;55.674;13.074;2023-06-26T09:27:24;29.10;99.90
20233;DHT22;37438;55.674;13.074;2023-06-26T09:30:29;29.00;94.30
20233;DHT22;37438;55.674;13.074;2023-06-26T09:33:36;28.10;99.90
20233;DHT22;37438;55.674;13.074;2023-06-26T09:36:41;27.70;99.90
20233;DHT22;37438;55.674;13.074;2023-06-26T09:39:50;28.00;99.90
20233;DHT22;37438;55.674;13.074;2023-06-26T09:43:01;28.50;99.90
20233;DHT22;37438;55.674;13.074;2023-06-26T09:46:06;28.80;99.90
20233;DHT22;37438;55.674;13.074;2023-06-26T09:49:11;28.60;99.90
20233;DHT22;37438;55.674;13.074;2023-06-26T09:52:16;28.40;99.90
20233;DHT22;37438;55.674;13.074;2023-06-26T09:55:21;28.60;99.90
20233;DHT22;37438;55.674;13.074;2023-06-26T09:58:28;28.90;99.90
20233;DHT22;37438;55.674;13.074;2023-06-26T10:01:36;29.00;94.70
20233;DHT22;37438;55.674;13.074;2023-06-26T10:04:41;28.80;99.90
20233;DHT22;37438;55.674;13.074;2023-06-26T10:07:46;29.80;37.80
20233;DHT22;37438;55.674;13.074;2023-06-26T10:10:50;29.10;59.60
20233;DHT22;37438;55.674;13.074;2023-06-26T10:13:56;29.10;82.90
20233;DHT22;37438;55.674;13.074;2023-06-26T10:17:19;29.10;37.80
20233;DHT22;37438;55.674;13.074;2023-06-26T10:20:25;29.00;63.50
20233;DHT22;37438;55.674;13.074;2023-06-26T10:23:31;29.30;38.90
20233;DHT22;37438;55.674;13.074;2023-06-26T10:26:37;28.80;55.80
20233;DHT22;37438;55.674;13.074;2023-06-26T10:29:43;28.70;67.40
20233;DHT22;37438;55.674;13.074;2023-06-26T10:32:49;28.50;96.00
20233;DHT22;37438;55.674;13.074;2023-06-26T10:35:54;28.80;69.80
20233;DHT22;37438;55.674;13.074;2023-06-26T10:39:15;28.30;99.90
20233;DHT22;37438;55.674;13.074;2023-06-26T10:42:33;29.30;48.60
20233;DHT22;37438;55.674;13.074;2023-06-26T10:45:45;28.70;92.20
20233;DHT22;37438;55.674;13.074;2023-06-26T10:48:57;28.90;76.30
20233;DHT22;37438;55.674;13.074;2023-06-26T10:52:02;28.90;90.40
20233;DHT22;37438;55.674;13.074;2023-06-26T10:55:08;29.10;80.70
20233;DHT22;37438;55.674;13.074;2023-06-26T11:01:40;29.20;66.30
20233;DHT22;37438;55.674;13.074;2023-06-26T11:04:49;28.70;79.20
20233;DHT22;37438;55.674;13.074;2023-06-26T11:08:03;28.70;97.70
20233;DHT22;37438;55.674;13.074;2023-06-26T11:11:07;28.40;99.90
20233;DHT22;37438;55.674;13.074;2023-06-26T11:14:11;29.60;39.30
20233;DHT22;37438;55.674;13.074;2023-06-26T11:17:16;28.60;89.40
20233;DHT22;37438;55.674;13.074;2023-06-26T11:20:23;28.60;99.90
20233;DHT22;37438;55.674;13.074;2023-06-26T11:23:27;29.60;38.10
20233;DHT22;37438;55.674;13.074;2023-06-26T11:26:39;28.60;79.60
20233;DHT22;37438;55.674;13.074;2023-06-26T11:29:47;29.00;51.80
20233;DHT22;37438;55.674;13.074;2023-06-26T11:32:52;28.90;71.10
20233;DHT22;37438;55.674;13.074;2023-06-26T11:36:07;29.10;48.00
20233;DHT22;37438;55.674;13.074;2023-06-26T11:39:11;29.60;27.10
20233;DHT22;37438;55.674;13.074;2023-06-26T11:42:16;30.00;2.50
20233;DHT22;37438;55.674;13.074;2023-06-26T11:45:20;29.30;38.10
20233;DHT22;37438;55.674;13.074;2023-06-26T11:48:25;29.70;7.20
20233;DHT22;37438;55.674;13.074;2023-06-26T11:51:30;30.20;1.00
20233;DHT22;37438;55.674;13.074;2023-06-26T11:54:34;29.90;1.00
20233;DHT22;37438;55.674;13.074;2023-06-26T11:57:39;29.60;31.80
20233;DHT22;37438;55.674;13.074;2023-06-26T12:00:43;30.60;1.00
20233;DHT22;37438;55.674;13.074;2023-06-26T12:03:48;29.70;1.00
20233;DHT22;37438;55.674;13.074;2023-06-26T12:06:53;29.80;9.30
20233;DHT22;37438;55.674;13.074;2023-06-26T12:10:09;30.30;1.00
20233;DHT22;37438;55.674;13.074;2023-06-26T12:13:14;28.70;38.20
20233;DHT22;37438;55.674;13.074;2023-06-26T12:16:19;28.90;57.10
20233;DHT22;37438;55.674;13.074;2023-06-26T12:19:24;28.60;52.70
20233;DHT22;37438;55.674;13.074;2023-06-26T12:22:33;28.20;75.30
20233;DHT22;37438;55.674;13.074;2023-06-26T12:25:38;28.10;90.40
20233;DHT22;37438;55.674;13.074;2023-06-26T12:28:44;27.80;94.50
20233;DHT22;37438;55.674;13.074;2023-06-26T12:31:49;27.50;99.90
20233;DHT22;37438;55.674;13.074;2023-06-26T12:34:54;28.10;99.90
20233;DHT22;37438;55.674;13.074;2023-06-26T12:38:00;27.90;98.20
20233;DHT22;37438;55.674;13.074;2023-06-26T12:41:04;27.90;99.90
20233;DHT22;37438;55.674;13.074;2023-06-26T12:44:30;28.00;99.90
20233;DHT22;37438;55.674;13.074;2023-06-26T12:47:33;27.80;99.90
20233;DHT22;37438;55.674;13.074;2023-06-26T12:50:45;28.00;99.90
20233;DHT22;37438;55.674;13.074;2023-06-26T12:53:49;27.80;99.90
20233;DHT22;37438;55.674;13.074;2023-06-26T12:56:54;27.80;99.90
20233;DHT22;37438;55.674;13.074;2023-06-26T12:59:58;27.90;99.90
20233;DHT22;37438;55.674;13.074;2023-06-26T13:03:06;27.20;99.90
20233;DHT22;37438;55.674;13.074;2023-06-26T13:06:14;27.30;99.90
20233;DHT22;37438;55.674;13.074;2023-06-26T13:09:19;26.80;99.90
20233;DHT22;37438;55.674;13.074;2023-06-26T13:12:24;26.50;99.90
20233;DHT22;37438;55.674;13.074;2023-06-26T13:15:28;26.20;99.90
20233;DHT22;37438;55.674;13.074;2023-06-26T13:18:33;26.20;99.90
20233;DHT22;37438;55.674;13.074;2023-06-26T13:21:37;26.20;99.90
20233;DHT22;37438;55.674;13.074;2023-06-26T13:24:42;25.70;99.90
20233;DHT22;37438;55.674;13.074;2023-06-26T13:27:47;25.30;1.00
20233;DHT22;37438;55.674;13.074;2023-06-26T13:30:51;25.10;33.20
20233;DHT22;37438;55.674;13.074;2023-06-26T13:33:57;25.00;99.90
20233;DHT22;37438;55.674;13.074;2023-06-26T13:37:02;25.00;99.90
20233;DHT22;37438;55.674;13.074;2023-06-26T13:40:06;24.50;99.90
20233;DHT22;37438;55.674;13.074;2023-06-26T13:43:14;24.40;1.00
20233;DHT22;37438;55.674;13.074;2023-06-26T13:46:18;24.00;99.90
20233;DHT22;37438;55.674;13.074;2023-06-26T13:49:23;23.80;99.90
20233;DHT22;37438;55.674;13.074;2023-06-26T13:52:28;23.80;1.00
20233;DHT22;37438;55.674;13.074;2023-06-26T13:55:32;23.80;1.00
20233;DHT22;37438;55.674;13.074;2023-06-26T13:58:37;23.60;99.90
20233;DHT22;37438;55.674;13.074;2023-06-26T14:01:42;23.60;99.90
20233;DHT22;37438;55.674;13.074;2023-06-26T14:04:48;23.60;1.00
20233;DHT22;37438;55.674;13.074;2023-06-26T14:07:53;22.80;96.20
20233;DHT22;37438;55.674;13.074;2023-06-26T14:11:00;21.50;99.90
20233;DHT22;37438;55.674;13.074;2023-06-26T14:14:05;20.70;99.90
20233;DHT22;37438;55.674;13.074;2023-06-26T14:17:10;20.20;99.90
20233;DHT22;37438;55.674;13.074;2023-06-26T14:20:20;19.20;99.90
20233;DHT22;37438;55.674;13.074;2023-06-26T14:23:26;19.10;99.90
20233;DHT22;37438;55.674;13.074;2023-06-26T14:26:31;19.40;99.90
20233;DHT22;37438;55.674;13.074;2023-06-26T14:29:40;19.50;99.90
20233;DHT22;37438;55.674;13.074;2023-06-26T14:32:46;19.60;99.90
20233;DHT22;37438;55.674;13.074;2023-06-26T14:35:52;19.80;99.90
20233;DHT22;37438;55.674;13.074;2023-06-26T14:39:00;20.50;99.90
20233;DHT22;37438;55.674;13.074;2023-06-26T14:42:05;20.70;99.90
20233;DHT22;37438;55.674;13.074;2023-06-26T14:45:11;20.80;99.90
20233;DHT22;37438;55.674;13.074;2023-06-26T14:48:17;20.40;99.90
20233;DHT22;37438;55.674;13.074;2023-06-26T14:51:24;20.40;99.90
20233;DHT22;37438;55.674;13.074;2023-06-26T14:54:31;20.50;99.90
20233;DHT22;37438;55.674;13.074;2023-06-26T14:57:38;20.10;99.90
20233;DHT22;37438;55.674;13.074;2023-06-26T15:00:43;20.20;99.90
20233;DHT22;37438;55.674;13.074;2023-06-26T15:03:48;20.70;99.90
20233;DHT22;37438;55.674;13.074;2023-06-26T15:06:56;20.50;99.90
20233;DHT22;37438;55.674;13.074;2023-06-26T15:10:01;20.50;99.90
20233;DHT22;37438;55.674;13.074;2023-06-26T15:13:06;20.50;99.90
20233;DHT22;37438;55.674;13.074;2023-06-26T15:16:12;20.40;99.90
20233;DHT22;37438;55.674;13.074;2023-06-26T15:19:19;20.30;99.90
20233;DHT22;37438;55.674;13.074;2023-06-26T15:22:25;20.50;99.90
20233;DHT22;37438;55.674;13.074;2023-06-26T15:25:30;20.60;99.90
20233;DHT22;37438;55.674;13.074;2023-06-26T15:28:37;20.60;99.90
20233;DHT22;37438;55.674;13.074;2023-06-26T15:31:43;20.60;99.90
20233;DHT22;37438;55.674;13.074;2023-06-26T15:34:48;20.70;99.90
20233;DHT22;37438;55.674;13.074;2023-06-26T15:37:53;20.70;99.90
20233;DHT22;37438;55.674;13.074;2023-06-26T15:40:59;20.80;99.90
20233;DHT22;37438;55.674;13.074;2023-06-26T15:44:04;20.70;99.90
20233;DHT22;37438;55.674;13.074;2023-06-26T15:47:09;20.90;99.90
20233;DHT22;37438;55.674;13.074;2023-06-26T15:50:14;20.70;99.90
20233;DHT22;37438;55.674;13.074;2023-06-26T15:53:20;20.60;99.90
20233;DHT22;37438;55.674;13.074;2023-06-26T15:56:37;20.60;99.90
20233;DHT22;37438;55.674;13.074;2023-06-26T15:59:42;20.50;99.90
20233;DHT22;37438;55.674;13.074;2023-06-26T16:02:46;20.40;99.90
20233;DHT22;37438;55.674;13.074;2023-06-26T16:05:55;20.40;99.90
20233;DHT22;37438;55.674;13.074;2023-06-26T16:09:00;20.40;99.90
20233;DHT22;37438;55.674;13.074;2023-06-26T16:12:06;20.50;99.90
20233;DHT22;37438;55.674;13.074;2023-06-26T16:15:11;20.50;99.90
20233;DHT22;37438;55.674;13.074;2023-06-26T16:18:16;20.50;99.90
20233;DHT22;37438;55.674;13.074;2023-06-26T16:21:21;20.50;99.90
20233;DHT22;37438;55.674;13.074;2023-06-26T16:24:26;20.40;99.90
20233;DHT22;37438;55.674;13.074;2023-06-26T16:27:31;20.40;99.90
20233;DHT22;37438;55.674;13.074;2023-06-26T16:30:36;20.40;99.90
20233;DHT22;37438;55.674;13.074;2023-06-26T16:33:41;20.40;99.90
20233;DHT22;37438;55.674;13.074;2023-06-26T16:36:46;20.30;99.90
20233;DHT22;37438;55.674;13.074;2023-06-26T16:39:54;20.50;99.90
20233;DHT22;37438;55.674;13.074;2023-06-26T16:42:59;20.60;99.90
20233;DHT22;37438;55.674;13.074;2023-06-26T16:46:03;20.70;99.90
20233;DHT22;37438;55.674;13.074;2023-06-26T16:49:08;20.90;99.90
20233;DHT22;37438;55.674;13.074;2023-06-26T16:52:13;20.90;99.90
20233;DHT22;37438;55.674;13.074;2023-06-26T16:55:18;20.90;99.90
20233;DHT22;37438;55.674;13.074;2023-06-26T16:58:23;20.80;99.90
20233;DHT22;37438;55.674;13.074;2023-06-26T17:01:28;20.70;99.90
20233;DHT22;37438;55.674;13.074;2023-06-26T17:04:33;20.70;99.90
20233;DHT22;37438;55.674;13.074;2023-06-26T17:07:38;20.50;99.90
20233;DHT22;37438;55.674;13.074;2023-06-26T17:10:44;20.50;99.90
20233;DHT22;37438;55.674;13.074;2023-06-26T17:13:49;20.50;99.90
20233;DHT22;37438;55.674;13.074;2023-06-26T17:16:56;20.50;99.90
20233;DHT22;37438;55.674;13.074;2023-06-26T17:20:02;20.50;99.90
20233;DHT22;37438;55.674;13.074;2023-06-26T17:23:11;20.60;99.90
20233;DHT22;37438;55.674;13.074;2023-06-26T17:26:16;20.60;99.90
20233;DHT22;37438;55.674;13.074;2023-06-26T17:29:22;20.60;99.90
20233;DHT22;37438;55.674;13.074;2023-06-26T17:32:27;20.60;99.90
20233;DHT22;37438;55.674;13.074;2023-06-26T17:35:32;20.60;99.90
20233;DHT22;37438;55.674;13.074;2023-06-26T17:38:39;20.70;99.90
20233;DHT22;37438;55.674;13.074;2023-06-26T17:41:45;20.50;99.90
20233;DHT22;37438;55.674;13.074;2023-06-26T17:44:51;20.60;99.90
20233;DHT22;37438;55.674;13.074;2023-06-26T17:47:56;20.60;99.90
20233;DHT22;37438;55.674;13.074;2023-06-26T17:51:01;20.50;99.90
20233;DHT22;37438;55.674;13.074;2023-06-26T17:54:07;20.50;99.90
20233;DHT22;37438;55.674;13.074;2023-06-26T17:57:12;20.50;99.90
20233;DHT22;37438;55.674;13.074;2023-06-26T18:00:16;20.40;99.90
20233;DHT22;37438;55.674;13.074;2023-06-26T18:03:21;20.40;99.90
20233;DHT22;37438;55.674;13.074;2023-06-26T18:06:27;20.60;99.90
20233;DHT22;37438;55.674;13.074;2023-06-26T18:09:32;20.40;99.90
20233;DHT22;37438;55.674;13.074;2023-06-26T18:12:38;20.50;99.90
20233;DHT22;37438;55.674;13.074;2023-06-26T18:15:43;20.50;99.90
20233;DHT22;37438;55.674;13.074;2023-06-26T18:18:48;20.60;99.90
20233;DHT22;37438;55.674;13.074;2023-06-26T18:21:53;20.60;99.90
20233;DHT22;37438;55.674;13.074;2023-06-26T18:24:59;20.60;99.90
20233;DHT22;37438;55.674;13.074;2023-06-26T18:28:04;20.70;99.90
20233;DHT22;37438;55.674;13.074;2023-06-26T18:31:10;20.70;99.90
20233;DHT22;37438;55.674;13.074;2023-06-26T18:34:15;20.80;99.90
20233;DHT22;37438;55.674;13.074;2023-06-26T18:37:20;20.90;99.90
20233;DHT22;37438;55.674;13.074;2023-06-26T18:40:25;20.20;99.90
20233;DHT22;37438;55.674;13.074;2023-06-26T18:43:29;20.00;99.90
20233;DHT22;37438;55.674;13.074;2023-06-26T18:46:36;19.80;99.90
20233;DHT22;37438;55.674;13.074;2023-06-26T18:49:42;19.60;99.90
20233;DHT22;37438;55.674;13.074;2023-06-26T18:52:47;19.50;99.90
20233;DHT22;37438;55.674;13.074;2023-06-26T18:55:52;19.40;99.90
20233;DHT22;37438;55.674;13.074;2023-06-26T18:58:57;19.30;99.90
20233;DHT22;37438;55.674;13.074;2023-06-26T19:02:04;19.30;99.90
20233;DHT22;37438;55.674;13.074;2023-06-26T19:05:09;19.30;99.90
20233;DHT22;37438;55.674;13.074;2023-06-26T19:08:14;19.10;99.90
20233;DHT22;37438;55.674;13.074;2023-06-26T19:11:19;19.20;99.90
20233;DHT22;37438;55.674;13.074;2023-06-26T19:14:25;19.10;99.90
20233;DHT22;37438;55.674;13.074;2023-06-26T19:17:30;19.10;99.90
20233;DHT22;37438;55.674;13.074;2023-06-26T19:20:35;19.10;99.90
20233;DHT22;37438;55.674;13.074;2023-06-26T19:23:39;19.00;99.90
20233;DHT22;37438;55.674;13.074;2023-06-26T19:26:44;18.90;99.90
20233;DHT22;37438;55.674;13.074;2023-06-26T19:29:49;19.00;99.90
20233;DHT22;37438;55.674;13.074;2023-06-26T19:32:55;19.00;99.90
20233;DHT22;37438;55.674;13.074;2023-06-26T19:36:00;18.90;99.90